Список аэропортов
Фактическая погода:

16 декабря, 13:00
Температура: +14°C (+14.0*)
Ветер: западный 1 м/с
Давление: *766 мм
несуществ. обл.
Время (МСК)Темп. СВетерВлажностьДавлениеОблачностьОсадки
09:00+10С, 3 м/с69%1025 гПас прояснениями
10:00+11С, 2 м/с65%1025 гПаоблачно
11:00+13С, 1 м/с59%1024 гПас прояснениями
12:00+14ЮВ, 2 м/с49%1023 гПас прояснениями
13:00+14ЮВ, 2 м/с47%1023 гПас прояснениями
14:00+14ЮВ, 1 м/с47%1023 гПас прояснениями
15:00+14Ю, 1 м/с49%1022 гПаоблачно
16:00+14ЮЗ, 1 м/с50%1022 гПаоблачно
17:00+12З, 1 м/с58%1022 гПаоблачно
18:00+12СЗ, 1 м/с66%1023 гПаоблачно
19:00+11СЗ, 1 м/с73%1023 гПаоблачно
20:00+11С, 2 м/с74%1023 гПаоблачно
21:00+10С, 2 м/с75%1022 гПаоблачно
22:00+10С, 3 м/с71%1022 гПаоблачно
23:00+10С, 3 м/с68%1022 гПаоблачно
17 декабря
00:00+10С, 3 м/с66%1021 гПаоблачно
01:00+11С, 3 м/с66%1021 гПаоблачно
02:00+10С, 3 м/с64%1021 гПаоблачно
03:00+10С, 3 м/с62%1020 гПаоблачно
04:00+11С, 3 м/с60%1020 гПаоблачно
05:00+11С, 4 м/с57%1020 гПаоблачно
06:00+11С, 3 м/с56%1019 гПаоблачно
07:00+11С, 3 м/с58%1019 гПаоблачно
08:00+10СВ, 2 м/с67%1019 гПаоблачно
09:00+11СВ, 2 м/с73%1019 гПаоблачно
10:00+12СВ, 1 м/с70%1018 гПамалооблачно
11:00+14Штиль 62%1017 гПас прояснениями
12:00+15З, 2 м/с60%1016 гПаоблачно
13:00+15Ю, 2 м/с61%1016 гПаоблачно
14:00+14Ю, 1 м/с63%1015 гПаоблачно
15:00+14Ю, 1 м/с64%1015 гПаоблачно
16:00+14Ю, 1 м/с66%1015 гПаоблачно
17:00+13ЮЗ, 1 м/с72%1016 гПаоблачно
18:00+13СЗ, 2 м/с76%1016 гПаоблачно
19:00+12СЗ, 2 м/с80%1017 гПаоблачно
20:00+12С, 1 м/с85%1017 гПас прояснениями
21:00+11С, 2 м/с85%1017 гПаоблачно
22:00+11С, 2 м/с84%1017 гПас прояснениями
23:00+11С, 2 м/с80%1017 гПас прояснениями
18 декабря
00:00+10С, 2 м/с76%1018 гПас прояснениями
01:00+10С, 2 м/с74%1018 гПаоблачно
02:00+10С, 2 м/с74%1018 гПаоблачно
03:00+10С, 1 м/с73%1018 гПаоблачно
04:00+9С, 1 м/с73%1018 гПаоблачно
05:00+9С, 1 м/с75%1018 гПаоблачно
06:00+9СВ, 1 м/с76%1018 гПаоблачно
07:00+10СВ, 1 м/с76%1018 гПаоблачно
08:00+10СВ, 2 м/с76%1019 гПас прояснениями
09:00+10В, 2 м/с75%1019 гПас прояснениями